createdAt,value
2022-10-18T00:01:56.965Z,100829.75
2022-10-18T00:07:00.506Z,100826.44
2022-10-18T00:12:03.664Z,100821.81
2022-10-18T00:17:06.377Z,100819.23
2022-10-18T00:22:09.030Z,100817.27
2022-10-18T00:27:11.942Z,100816.48
2022-10-18T00:32:14.476Z,100823.27
2022-10-18T00:37:17.617Z,100826.95
2022-10-18T00:42:22.511Z,100831.25
2022-10-18T00:47:25.019Z,100838.00
2022-10-18T00:52:34.059Z,100840.81
2022-10-18T00:57:38.228Z,100842.52
2022-10-18T01:02:43.692Z,100846.21
2022-10-18T01:07:52.146Z,100844.98
2022-10-18T01:13:12.446Z,100839.73
2022-10-18T01:18:39.736Z,100835.18
2022-10-18T01:24:12.134Z,100825.92
2022-10-18T01:29:29.570Z,100811.59
2022-10-18T01:34:35.175Z,100808.87
2022-10-18T01:39:39.937Z,100810.39
2022-10-18T01:44:44.883Z,100803.11
2022-10-18T01:49:47.472Z,100798.33
2022-10-18T01:54:50.367Z,100800.11
2022-10-18T02:00:06.744Z,100808.14
2022-10-18T02:05:41.074Z,100801.78
2022-10-18T02:10:48.557Z,100796.19
2022-10-18T02:15:56.216Z,100797.42
2022-10-18T02:21:00.329Z,100794.95
2022-10-18T02:26:03.229Z,100795.52
2022-10-18T02:31:31.224Z,100789.81
2022-10-18T02:36:42.069Z,100794.69
2022-10-18T02:41:44.503Z,100795.77
2022-10-18T02:46:47.647Z,100798.00
2022-10-18T02:51:50.089Z,100801.17
2022-10-18T02:56:53.083Z,100802.14
2022-10-18T03:01:55.622Z,100806.86
2022-10-18T03:06:58.188Z,100807.23
2022-10-18T03:12:00.703Z,100817.38
2022-10-18T03:17:04.836Z,100830.92
2022-10-18T03:22:07.451Z,100835.34
2022-10-18T03:27:09.905Z,100836.71
2022-10-18T03:32:12.318Z,100830.48
2022-10-18T03:37:14.709Z,100830.83
2022-10-18T03:42:17.237Z,100839.73
2022-10-18T03:47:19.693Z,100840.10
2022-10-18T03:52:22.110Z,100846.13
2022-10-18T03:57:24.548Z,100848.91
2022-10-18T04:02:27.669Z,100856.95
2022-10-18T04:07:30.377Z,100858.96
2022-10-18T04:12:33.444Z,100859.06
2022-10-18T04:17:36.656Z,100855.00
2022-10-18T04:22:39.084Z,100856.61
2022-10-18T04:27:41.553Z,100847.25
2022-10-18T04:32:44.117Z,100854.78
2022-10-18T04:37:46.750Z,100863.02
2022-10-18T04:42:49.537Z,100863.84
2022-10-18T04:47:51.950Z,100853.48
2022-10-18T04:52:54.394Z,100857.95
2022-10-18T04:57:57.109Z,100865.55
2022-10-18T05:02:59.527Z,100868.75
2022-10-18T05:08:01.962Z,100878.72
2022-10-18T05:13:04.465Z,100875.52
2022-10-18T05:18:07.712Z,100874.39
2022-10-18T05:23:10.911Z,100872.45
2022-10-18T05:28:38.007Z,100862.91
2022-10-18T05:33:36.338Z,100867.51
2022-10-18T05:38:42.701Z,100872.88
2022-10-18T05:43:45.531Z,100881.58
2022-10-18T05:48:51.624Z,100885.41
2022-10-18T05:53:54.688Z,100891.02
2022-10-18T05:58:57.361Z,100903.55
2022-10-18T06:03:59.847Z,100911.29
2022-10-18T06:09:03.510Z,100902.06
2022-10-18T06:14:07.971Z,100907.33
2022-10-18T06:19:12.072Z,100901.58
2022-10-18T06:24:14.509Z,100889.56
2022-10-18T06:29:16.950Z,100904.15
2022-10-18T06:34:19.469Z,100915.67
2022-10-18T06:39:23.331Z,100913.55
2022-10-18T06:44:25.975Z,100903.05
2022-10-18T06:49:28.393Z,100906.58
2022-10-18T06:54:30.797Z,100904.06
2022-10-18T06:59:34.121Z,100909.09
2022-10-18T07:04:36.576Z,100916.01
2022-10-18T07:09:39.368Z,100914.59
2022-10-18T07:14:41.775Z,100918.85
2022-10-18T07:19:44.132Z,100922.23
2022-10-18T07:24:46.809Z,100927.38
2022-10-18T07:29:49.590Z,100930.90
2022-10-18T07:34:52.180Z,100927.77
2022-10-18T07:39:54.614Z,100935.78
2022-10-18T07:44:57.179Z,100942.57
2022-10-18T07:49:59.577Z,100941.61
2022-10-18T07:55:02.017Z,100953.50
2022-10-18T08:00:05.029Z,100947.45
2022-10-18T08:05:07.794Z,100953.05
2022-10-18T08:10:10.210Z,100956.98
2022-10-18T08:15:12.880Z,100963.56
2022-10-18T08:20:29.798Z,100955.61
2022-10-18T08:30:38.126Z,100954.09
2022-10-18T08:35:40.561Z,100960.45
2022-10-18T08:40:44.368Z,100958.48
2022-10-18T08:45:46.939Z,100946.61
2022-10-18T08:50:50.838Z,100924.98
2022-10-18T08:56:21.091Z,100914.50
2022-10-18T09:07:10.986Z,100903.23
2022-10-18T09:12:13.369Z,100927.73
2022-10-18T09:17:34.419Z,100939.48
2022-10-18T09:22:41.467Z,100938.95
2022-10-18T09:27:52.796Z,100910.38
2022-10-18T09:33:05.768Z,100897.96
2022-10-18T09:38:12.526Z,100880.30
2022-10-18T09:43:23.232Z,100900.05
2022-10-18T09:48:37.206Z,100910.38
2022-10-18T09:54:21.960Z,100909.23
2022-10-18T09:59:34.059Z,100896.62
2022-10-18T10:04:36.425Z,100868.45
2022-10-18T10:09:48.104Z,100875.80
2022-10-18T10:14:50.504Z,100884.00
2022-10-18T10:19:58.872Z,100883.46
2022-10-18T10:25:02.012Z,100875.66
2022-10-18T10:30:22.839Z,100882.41
2022-10-18T10:35:59.383Z,100889.05
2022-10-18T10:41:02.137Z,100889.96
2022-10-18T10:46:12.920Z,100892.27
2022-10-18T10:51:27.287Z,100887.08
2022-10-18T10:56:33.904Z,100889.10
2022-10-18T11:01:37.252Z,100877.10
2022-10-18T11:06:44.791Z,100885.59
2022-10-18T11:11:56.654Z,100883.63
2022-10-18T11:17:23.459Z,100882.99
2022-10-18T11:22:27.770Z,100877.19
2022-10-18T11:27:42.884Z,100867.30
2022-10-18T11:33:14.614Z,100864.22
2022-10-18T11:38:40.067Z,100869.55
2022-10-18T11:44:02.944Z,100853.23
2022-10-18T11:49:15.728Z,100846.36
2022-10-18T11:54:30.073Z,100839.90
2022-10-18T11:59:42.393Z,100830.11
2022-10-18T12:05:05.946Z,100816.42
2022-10-18T12:10:26.231Z,100809.83
2022-10-18T12:15:41.135Z,100795.89
2022-10-18T12:20:49.515Z,100788.48
2022-10-18T12:25:56.834Z,100784.55
2022-10-18T12:31:20.898Z,100778.05
2022-10-18T12:36:44.909Z,100778.85
2022-10-18T12:41:48.475Z,100784.80
2022-10-18T12:46:55.659Z,100787.54
2022-10-18T12:52:06.645Z,100782.59
2022-10-18T12:57:23.238Z,100780.13
2022-10-18T13:02:28.114Z,100766.73
2022-10-18T13:07:32.231Z,100750.48
2022-10-18T13:12:55.089Z,100748.77
2022-10-18T13:18:10.075Z,100744.17
2022-10-18T13:23:33.876Z,100729.02
2022-10-18T13:29:02.770Z,100716.84
2022-10-18T13:34:24.033Z,100725.87
2022-10-18T13:39:27.742Z,100725.48
2022-10-18T13:44:37.839Z,100725.16
2022-10-18T13:49:40.420Z,100734.26
2022-10-18T13:55:07.087Z,100738.45
2022-10-18T14:00:49.063Z,100738.27
2022-10-18T14:05:56.812Z,100730.37
2022-10-18T14:11:24.212Z,100723.91
2022-10-18T14:16:53.534Z,100719.16
2022-10-18T14:22:19.783Z,100703.66
2022-10-18T14:27:26.791Z,100694.67
2022-10-18T14:32:32.059Z,100691.23
2022-10-18T14:37:36.501Z,100688.05
2022-10-18T14:42:50.803Z,100658.14
2022-10-18T14:47:53.311Z,100664.02
2022-10-18T14:52:55.944Z,100663.30
2022-10-18T14:57:59.274Z,100644.40
2022-10-18T15:03:05.135Z,100655.11
2022-10-18T15:08:09.613Z,100648.48
2022-10-18T15:13:13.625Z,100642.81
2022-10-18T15:18:24.839Z,100663.39
2022-10-18T15:23:31.916Z,100677.51
2022-10-18T15:28:40.063Z,100667.06
2022-10-18T15:33:42.584Z,100639.77
2022-10-18T15:38:47.604Z,100633.45
2022-10-18T15:44:10.274Z,100620.46
2022-10-18T15:49:47.316Z,100624.48
2022-10-18T15:54:49.679Z,100624.08
2022-10-18T16:00:02.172Z,100628.20
2022-10-18T16:05:05.347Z,100629.55
2022-10-18T16:10:14.538Z,100625.23
2022-10-18T16:15:17.113Z,100629.06
2022-10-18T16:20:24.920Z,100637.24
2022-10-18T16:25:27.535Z,100639.45
2022-10-18T16:30:32.954Z,100638.44
2022-10-18T16:35:35.856Z,100638.60
2022-10-18T16:40:41.168Z,100648.05
2022-10-18T16:45:44.598Z,100654.52
2022-10-18T16:50:47.930Z,100656.27
2022-10-18T16:55:57.301Z,100654.23
2022-10-18T17:01:01.894Z,100658.90
2022-10-18T17:06:13.358Z,100661.25
2022-10-18T17:11:16.920Z,100654.41
2022-10-18T17:16:38.854Z,100650.45
2022-10-18T17:21:41.620Z,100651.20
2022-10-18T17:26:44.353Z,100648.61
2022-10-18T17:31:47.853Z,100638.83
2022-10-18T17:36:50.338Z,100646.25
2022-10-18T17:41:52.806Z,100658.57
2022-10-18T17:46:56.292Z,100672.36
2022-10-18T17:52:01.150Z,100668.06
2022-10-18T17:57:05.736Z,100664.58
2022-10-18T18:02:10.799Z,100673.46
2022-10-18T18:07:13.519Z,100683.63
2022-10-18T18:12:16.280Z,100683.04
2022-10-18T18:17:28.568Z,100680.41
2022-10-18T18:22:41.651Z,100680.23
2022-10-18T18:27:45.907Z,100680.50
2022-10-18T18:32:48.733Z,100679.91
2022-10-18T18:37:51.272Z,100675.44
2022-10-18T18:43:12.139Z,100671.83
2022-10-18T18:48:19.094Z,100670.66
2022-10-18T18:53:25.989Z,100670.28
2022-10-18T18:58:33.909Z,100671.35
2022-10-18T19:03:38.589Z,100666.59
2022-10-18T19:08:44.562Z,100662.52
2022-10-18T19:13:48.749Z,100663.98
2022-10-18T19:18:52.073Z,100664.17
2022-10-18T19:23:56.497Z,100662.14
2022-10-18T19:29:07.334Z,100663.73
2022-10-18T19:34:12.577Z,100668.59
2022-10-18T19:39:18.785Z,100672.04
2022-10-18T19:44:23.051Z,100672.91
2022-10-18T19:49:26.177Z,100667.80
2022-10-18T19:54:28.657Z,100662.34
2022-10-18T19:59:31.273Z,100657.88
2022-10-18T20:04:35.001Z,100651.23
2022-10-18T20:09:38.175Z,100644.77
2022-10-18T20:14:40.678Z,100645.85
2022-10-18T20:19:43.589Z,100651.40
2022-10-18T20:24:46.601Z,100649.34
2022-10-18T20:29:51.546Z,100647.52
2022-10-18T20:34:54.292Z,100649.58
2022-10-18T20:39:56.737Z,100650.44
2022-10-18T20:44:59.288Z,100646.09
2022-10-18T20:50:02.458Z,100649.33
2022-10-18T20:55:06.489Z,100638.23
2022-10-18T21:00:11.516Z,100623.98
2022-10-18T21:05:16.430Z,100620.45
2022-10-18T21:10:18.838Z,100621.16
2022-10-18T21:15:21.291Z,100623.86
2022-10-18T21:20:24.816Z,100620.23
2022-10-18T21:25:27.190Z,100614.41
2022-10-18T21:30:29.973Z,100615.31
2022-10-18T21:35:38.917Z,100608.66
2022-10-18T21:40:44.457Z,100604.83
2022-10-18T21:45:46.825Z,100610.39
2022-10-18T21:50:50.034Z,100608.33
2022-10-18T21:55:52.433Z,100599.69
2022-10-18T22:00:54.894Z,100593.45
2022-10-18T22:06:07.843Z,100588.88
2022-10-18T22:11:12.338Z,100585.94
2022-10-18T22:16:16.357Z,100583.43
2022-10-18T22:21:20.140Z,100574.42
2022-10-18T22:26:28.874Z,100568.15
2022-10-18T22:31:34.783Z,100562.97
2022-10-18T22:36:38.077Z,100547.86
2022-10-18T22:41:41.242Z,100536.42
2022-10-18T22:46:43.676Z,100526.16
2022-10-18T22:51:46.123Z,100513.77
2022-10-18T22:56:48.531Z,100513.40
2022-10-18T23:01:51.200Z,100512.34
2022-10-18T23:06:53.631Z,100513.96
2022-10-18T23:11:56.120Z,100521.46
2022-10-18T23:16:58.613Z,100519.86
2022-10-18T23:22:01.021Z,100510.30
2022-10-18T23:27:03.494Z,100500.42
2022-10-18T23:32:05.932Z,100504.59
2022-10-18T23:37:08.685Z,100503.31
2022-10-18T23:42:11.279Z,100496.96
2022-10-18T23:47:14.842Z,100493.70
2022-10-18T23:52:17.304Z,100485.75
2022-10-18T23:57:19.663Z,100480.88
